sensor_id;sensor_type;location;lat;lon;timestamp;pressure;altitude;pressure_sealevel;temperature;humidity
52625;BME280;38519;52.540;13.410;2023-06-10T00:02:10;100534.34;;;14.45;100.00
52625;BME280;38519;52.540;13.410;2023-06-10T00:04:35;100545.94;;;14.65;100.00
52625;BME280;38519;52.540;13.410;2023-06-10T00:07:05;100546.53;;;14.60;100.00
52625;BME280;38519;52.540;13.410;2023-06-10T00:09:34;100540.53;;;14.62;100.00
52625;BME280;38519;52.540;13.410;2023-06-10T00:12:01;100540.19;;;14.56;100.00
52625;BME280;38519;52.540;13.410;2023-06-10T00:14:26;100531.56;;;14.42;100.00
52625;BME280;38519;52.540;13.410;2023-06-10T00:16:52;100537.53;;;14.39;100.00
52625;BME280;38519;52.540;13.410;2023-06-10T00:19:17;100532.94;;;14.35;100.00
52625;BME280;38519;52.540;13.410;2023-06-10T00:21:44;100528.66;;;14.37;100.00
52625;BME280;38519;52.540;13.410;2023-06-10T00:24:10;100513.63;;;14.35;100.00
52625;BME280;38519;52.540;13.410;2023-06-10T00:26:38;100521.38;;;14.32;100.00
52625;BME280;38519;52.540;13.410;2023-06-10T00:29:03;100531.63;;;14.27;100.00
52625;BME280;38519;52.540;13.410;2023-06-10T00:31:28;100518.41;;;14.26;100.00
52625;BME280;38519;52.540;13.410;2023-06-10T00:33:55;100521.13;;;14.27;100.00
52625;BME280;38519;52.540;13.410;2023-06-10T00:36:21;100525.13;;;14.20;100.00
52625;BME280;38519;52.540;13.410;2023-06-10T00:38:47;100519.03;;;14.21;100.00
52625;BME280;38519;52.540;13.410;2023-06-10T00:41:13;100520.69;;;14.19;100.00
52625;BME280;38519;52.540;13.410;2023-06-10T00:43:38;100520.78;;;14.21;100.00
52625;BME280;38519;52.540;13.410;2023-06-10T00:46:04;100509.53;;;14.24;100.00
52625;BME280;38519;52.540;13.410;2023-06-10T00:48:30;100515.63;;;14.23;100.00
52625;BME280;38519;52.540;13.410;2023-06-10T00:50:55;100507.38;;;14.16;100.00
52625;BME280;38519;52.540;13.410;2023-06-10T00:53:21;100513.09;;;14.09;100.00
52625;BME280;38519;52.540;13.410;2023-06-10T00:55:47;100511.16;;;14.05;100.00
52625;BME280;38519;52.540;13.410;2023-06-10T00:58:12;100510.53;;;13.94;100.00
52625;BME280;38519;52.540;13.410;2023-06-10T01:00:38;100507.75;;;13.91;100.00
52625;BME280;38519;52.540;13.410;2023-06-10T01:03:04;100515.25;;;14.00;100.00
52625;BME280;38519;52.540;13.410;2023-06-10T01:05:32;100516.13;;;14.00;100.00
52625;BME280;38519;52.540;13.410;2023-06-10T01:10:41;100507.13;;;13.95;100.00
52625;BME280;38519;52.540;13.410;2023-06-10T01:13:11;100515.16;;;13.98;100.00
52625;BME280;38519;52.540;13.410;2023-06-10T01:15:40;100514.31;;;13.99;100.00
52625;BME280;38519;52.540;13.410;2023-06-10T01:18:06;100525.56;;;13.97;100.00
52625;BME280;38519;52.540;13.410;2023-06-10T01:20:35;100515.88;;;13.96;100.00
52625;BME280;38519;52.540;13.410;2023-06-10T01:23:02;100519.16;;;13.92;100.00
52625;BME280;38519;52.540;13.410;2023-06-10T01:25:30;100515.44;;;13.88;100.00
52625;BME280;38519;52.540;13.410;2023-06-10T01:30:53;100513.34;;;13.66;100.00
52625;BME280;38519;52.540;13.410;2023-06-10T01:33:24;100520.38;;;13.67;100.00
52625;BME280;38519;52.540;13.410;2023-06-10T01:35:51;100510.94;;;13.71;100.00
52625;BME280;38519;52.540;13.410;2023-06-10T01:38:18;100513.66;;;13.72;100.00
52625;BME280;38519;52.540;13.410;2023-06-10T01:40:44;100511.44;;;13.63;100.00
52625;BME280;38519;52.540;13.410;2023-06-10T01:43:13;100507.38;;;13.54;100.00
52625;BME280;38519;52.540;13.410;2023-06-10T01:45:39;100514.28;;;13.52;100.00
52625;BME280;38519;52.540;13.410;2023-06-10T01:48:05;100511.81;;;13.55;100.00
52625;BME280;38519;52.540;13.410;2023-06-10T01:50:30;100514.06;;;13.63;100.00
52625;BME280;38519;52.540;13.410;2023-06-10T01:52:56;100513.16;;;13.63;100.00
52625;BME280;38519;52.540;13.410;2023-06-10T01:55:22;100510.00;;;13.54;100.00
52625;BME280;38519;52.540;13.410;2023-06-10T01:57:47;100501.59;;;13.44;100.00
52625;BME280;38519;52.540;13.410;2023-06-10T02:00:13;100514.44;;;13.40;100.00
52625;BME280;38519;52.540;13.410;2023-06-10T02:02:39;100511.03;;;13.41;100.00
52625;BME280;38519;52.540;13.410;2023-06-10T02:05:04;100507.50;;;13.40;100.00
52625;BME280;38519;52.540;13.410;2023-06-10T02:07:30;100500.53;;;13.41;100.00
52625;BME280;38519;52.540;13.410;2023-06-10T02:09:55;100501.16;;;13.37;100.00
52625;BME280;38519;52.540;13.410;2023-06-10T02:12:22;100501.25;;;13.38;100.00
52625;BME280;38519;52.540;13.410;2023-06-10T02:14:47;100507.41;;;13.39;100.00
52625;BME280;38519;52.540;13.410;2023-06-10T02:17:13;100507.31;;;13.37;100.00
52625;BME280;38519;52.540;13.410;2023-06-10T02:19:40;100515.00;;;13.34;100.00
52625;BME280;38519;52.540;13.410;2023-06-10T02:22:10;100511.34;;;13.32;100.00
52625;BME280;38519;52.540;13.410;2023-06-10T02:24:36;100514.91;;;13.33;100.00
52625;BME280;38519;52.540;13.410;2023-06-10T02:27:03;100512.38;;;13.34;100.00
52625;BME280;38519;52.540;13.410;2023-06-10T02:29:29;100513.88;;;13.30;100.00
52625;BME280;38519;52.540;13.410;2023-06-10T02:31:54;100513.81;;;13.29;100.00
52625;BME280;38519;52.540;13.410;2023-06-10T02:34:20;100509.19;;;13.25;100.00
52625;BME280;38519;52.540;13.410;2023-06-10T02:36:46;100506.66;;;13.26;100.00
52625;BME280;38519;52.540;13.410;2023-06-10T02:39:14;100506.94;;;13.31;100.00
52625;BME280;38519;52.540;13.410;2023-06-10T02:41:39;100507.94;;;13.33;100.00
52625;BME280;38519;52.540;13.410;2023-06-10T02:44:04;100502.50;;;13.45;100.00
52625;BME280;38519;52.540;13.410;2023-06-10T02:46:30;100505.41;;;13.35;100.00
52625;BME280;38519;52.540;13.410;2023-06-10T02:48:56;100506.22;;;13.34;100.00
52625;BME280;38519;52.540;13.410;2023-06-10T02:51:21;100500.69;;;13.29;100.00
52625;BME280;38519;52.540;13.410;2023-06-10T02:53:47;100503.03;;;13.24;100.00
52625;BME280;38519;52.540;13.410;2023-06-10T02:56:13;100500.84;;;13.17;100.00
52625;BME280;38519;52.540;13.410;2023-06-10T02:58:38;100502.50;;;13.15;100.00
52625;BME280;38519;52.540;13.410;2023-06-10T03:01:04;100497.97;;;13.12;100.00
52625;BME280;38519;52.540;13.410;2023-06-10T03:03:30;100496.28;;;13.13;100.00
52625;BME280;38519;52.540;13.410;2023-06-10T03:05:55;100496.28;;;13.13;100.00
52625;BME280;38519;52.540;13.410;2023-06-10T03:08:22;100503.47;;;13.17;100.00
52625;BME280;38519;52.540;13.410;2023-06-10T03:10:47;100495.63;;;13.17;100.00
52625;BME280;38519;52.540;13.410;2023-06-10T03:13:12;100496.69;;;13.21;100.00
52625;BME280;38519;52.540;13.410;2023-06-10T03:15:39;100507.28;;;13.22;100.00
52625;BME280;38519;52.540;13.410;2023-06-10T03:18:06;100505.66;;;13.24;100.00
52625;BME280;38519;52.540;13.410;2023-06-10T03:20:32;100503.94;;;13.25;100.00
52625;BME280;38519;52.540;13.410;2023-06-10T03:23:03;100493.00;;;13.17;100.00
52625;BME280;38519;52.540;13.410;2023-06-10T03:25:30;100492.16;;;13.03;100.00
52625;BME280;38519;52.540;13.410;2023-06-10T03:27:57;100493.53;;;12.97;100.00
52625;BME280;38519;52.540;13.410;2023-06-10T03:30:28;100497.06;;;12.97;100.00
52625;BME280;38519;52.540;13.410;2023-06-10T03:32:53;100495.25;;;12.96;100.00
52625;BME280;38519;52.540;13.410;2023-06-10T03:35:19;100493.53;;;12.97;100.00
52625;BME280;38519;52.540;13.410;2023-06-10T03:37:44;100505.28;;;13.03;100.00
52625;BME280;38519;52.540;13.410;2023-06-10T03:40:12;100503.84;;;13.08;100.00
52625;BME280;38519;52.540;13.410;2023-06-10T03:42:38;100499.50;;;13.09;100.00
52625;BME280;38519;52.540;13.410;2023-06-10T03:45:03;100505.81;;;13.12;100.00
52625;BME280;38519;52.540;13.410;2023-06-10T03:47:35;100502.69;;;13.18;100.00
52625;BME280;38519;52.540;13.410;2023-06-10T03:50:02;100499.97;;;13.17;100.00
52625;BME280;38519;52.540;13.410;2023-06-10T03:52:28;100498.50;;;13.22;100.00
52625;BME280;38519;52.540;13.410;2023-06-10T03:54:54;100509.19;;;13.25;100.00
52625;BME280;38519;52.540;13.410;2023-06-10T03:57:21;100507.06;;;13.33;100.00
52625;BME280;38519;52.540;13.410;2023-06-10T03:59:46;100504.44;;;13.33;100.00
52625;BME280;38519;52.540;13.410;2023-06-10T04:02:11;100513.19;;;13.33;100.00
52625;BME280;38519;52.540;13.410;2023-06-10T04:04:37;100511.56;;;13.35;100.00
52625;BME280;38519;52.540;13.410;2023-06-10T04:07:03;100510.56;;;13.33;100.00
52625;BME280;38519;52.540;13.410;2023-06-10T04:09:29;100510.13;;;13.40;100.00
52625;BME280;38519;52.540;13.410;2023-06-10T04:11:54;100512.28;;;13.47;100.00
52625;BME280;38519;52.540;13.410;2023-06-10T04:14:19;100509.19;;;13.40;100.00
52625;BME280;38519;52.540;13.410;2023-06-10T04:16:45;100514.44;;;13.55;100.00
52625;BME280;38519;52.540;13.410;2023-06-10T04:19:10;100516.72;;;13.48;100.00
52625;BME280;38519;52.540;13.410;2023-06-10T04:21:37;100515.69;;;13.61;100.00
52625;BME280;38519;52.540;13.410;2023-06-10T04:24:02;100508.81;;;13.63;100.00
52625;BME280;38519;52.540;13.410;2023-06-10T04:26:27;100515.78;;;13.63;100.00
52625;BME280;38519;52.540;13.410;2023-06-10T04:28:54;100519.22;;;13.62;100.00
52625;BME280;38519;52.540;13.410;2023-06-10T04:31:19;100511.00;;;13.56;100.00
52625;BME280;38519;52.540;13.410;2023-06-10T04:33:45;100510.38;;;13.60;100.00
52625;BME280;38519;52.540;13.410;2023-06-10T04:36:11;100508.81;;;13.63;100.00
52625;BME280;38519;52.540;13.410;2023-06-10T04:38:39;100519.56;;;13.68;100.00
52625;BME280;38519;52.540;13.410;2023-06-10T04:41:06;100524.81;;;13.68;100.00
52625;BME280;38519;52.540;13.410;2023-06-10T04:43:31;100515.50;;;13.73;100.00
52625;BME280;38519;52.540;13.410;2023-06-10T04:45:56;100524.34;;;13.75;100.00
52625;BME280;38519;52.540;13.410;2023-06-10T04:48:22;100530.78;;;13.80;100.00
52625;BME280;38519;52.540;13.410;2023-06-10T04:50:49;100529.31;;;13.86;100.00
52625;BME280;38519;52.540;13.410;2023-06-10T04:53:15;100533.09;;;13.91;100.00
52625;BME280;38519;52.540;13.410;2023-06-10T04:55:41;100531.94;;;13.86;100.00
52625;BME280;38519;52.540;13.410;2023-06-10T04:58:07;100538.25;;;13.89;100.00
52625;BME280;38519;52.540;13.410;2023-06-10T05:00:32;100540.88;;;13.89;100.00
52625;BME280;38519;52.540;13.410;2023-06-10T05:02:57;100546.75;;;14.00;100.00
52625;BME280;38519;52.540;13.410;2023-06-10T05:05:23;100545.09;;;14.02;100.00
52625;BME280;38519;52.540;13.410;2023-06-10T05:07:48;100542.56;;;14.03;100.00
52625;BME280;38519;52.540;13.410;2023-06-10T05:10:14;100543.47;;;14.04;100.00
52625;BME280;38519;52.540;13.410;2023-06-10T05:12:40;100540.34;;;13.95;100.00
52625;BME280;38519;52.540;13.410;2023-06-10T05:15:06;100544.56;;;13.93;100.00
52625;BME280;38519;52.540;13.410;2023-06-10T05:17:31;100546.66;;;13.98;100.00
52625;BME280;38519;52.540;13.410;2023-06-10T05:19:57;100548.34;;;14.13;100.00
52625;BME280;38519;52.540;13.410;2023-06-10T05:22:22;100544.16;;;14.16;100.00
52625;BME280;38519;52.540;13.410;2023-06-10T05:24:50;100554.25;;;14.25;100.00
52625;BME280;38519;52.540;13.410;2023-06-10T05:27:16;100558.06;;;14.30;100.00
52625;BME280;38519;52.540;13.410;2023-06-10T05:29:41;100554.94;;;14.37;100.00
52625;BME280;38519;52.540;13.410;2023-06-10T05:32:06;100564.13;;;14.46;100.00
52625;BME280;38519;52.540;13.410;2023-06-10T05:34:32;100555.41;;;14.62;100.00
52625;BME280;38519;52.540;13.410;2023-06-10T05:36:58;100557.28;;;14.81;100.00
52625;BME280;38519;52.540;13.410;2023-06-10T05:39:24;100566.91;;;14.97;100.00
52625;BME280;38519;52.540;13.410;2023-06-10T05:41:49;100565.09;;;15.12;100.00
52625;BME280;38519;52.540;13.410;2023-06-10T05:44:15;100560.75;;;15.30;100.00
52625;BME280;38519;52.540;13.410;2023-06-10T05:46:40;100560.88;;;15.50;100.00
52625;BME280;38519;52.540;13.410;2023-06-10T05:49:06;100558.13;;;15.65;100.00
52625;BME280;38519;52.540;13.410;2023-06-10T05:51:31;100566.88;;;15.82;100.00
52625;BME280;38519;52.540;13.410;2023-06-10T05:53:57;100562.88;;;15.90;100.00
52625;BME280;38519;52.540;13.410;2023-06-10T05:56:22;100571.53;;;16.06;100.00
52625;BME280;38519;52.540;13.410;2023-06-10T05:58:48;100567.31;;;16.09;100.00
52625;BME280;38519;52.540;13.410;2023-06-10T06:01:13;100567.59;;;16.15;100.00
52625;BME280;38519;52.540;13.410;2023-06-10T06:03:39;100565.50;;;16.26;100.00
52625;BME280;38519;52.540;13.410;2023-06-10T06:06:04;100568.13;;;16.26;100.00
52625;BME280;38519;52.540;13.410;2023-06-10T06:08:30;100575.56;;;16.54;100.00
52625;BME280;38519;52.540;13.410;2023-06-10T06:10:55;100583.03;;;16.63;100.00
52625;BME280;38519;52.540;13.410;2023-06-10T06:13:21;100584.63;;;16.79;100.00
52625;BME280;38519;52.540;13.410;2023-06-10T06:15:46;100591.63;;;16.97;100.00
52625;BME280;38519;52.540;13.410;2023-06-10T06:18:12;100591.66;;;16.98;100.00
52625;BME280;38519;52.540;13.410;2023-06-10T06:20:37;100595.97;;;16.96;100.00
52625;BME280;38519;52.540;13.410;2023-06-10T06:23:02;100595.16;;;16.97;100.00
52625;BME280;38519;52.540;13.410;2023-06-10T06:25:28;100602.09;;;16.95;100.00
52625;BME280;38519;52.540;13.410;2023-06-10T06:27:53;100600.53;;;16.81;100.00
52625;BME280;38519;52.540;13.410;2023-06-10T06:30:19;100600.69;;;16.84;100.00
52625;BME280;38519;52.540;13.410;2023-06-10T06:32:44;100601.88;;;16.90;100.00
52625;BME280;38519;52.540;13.410;2023-06-10T06:35:13;100602.91;;;17.14;100.00
52625;BME280;38519;52.540;13.410;2023-06-10T06:37:39;100606.38;;;17.13;100.00
52625;BME280;38519;52.540;13.410;2023-06-10T06:40:13;100611.31;;;17.24;100.00
52625;BME280;38519;52.540;13.410;2023-06-10T06:42:40;100615.72;;;17.25;100.00
52625;BME280;38519;52.540;13.410;2023-06-10T06:45:06;100621.66;;;17.20;100.00
52625;BME280;38519;52.540;13.410;2023-06-10T06:47:31;100612.44;;;17.10;100.00
52625;BME280;38519;52.540;13.410;2023-06-10T06:49:56;100614.91;;;17.26;100.00
52625;BME280;38519;52.540;13.410;2023-06-10T06:52:22;100623.66;;;17.45;100.00
52625;BME280;38519;52.540;13.410;2023-06-10T06:54:47;100634.09;;;17.63;100.00
52625;BME280;38519;52.540;13.410;2023-06-10T06:57:13;100631.97;;;17.75;100.00
52625;BME280;38519;52.540;13.410;2023-06-10T06:59:38;100630.78;;;17.69;100.00
52625;BME280;38519;52.540;13.410;2023-06-10T07:02:03;100629.63;;;17.83;100.00
52625;BME280;38519;52.540;13.410;2023-06-10T07:04:29;100631.31;;;18.23;100.00
52625;BME280;38519;52.540;13.410;2023-06-10T07:06:56;100632.44;;;18.51;100.00
52625;BME280;38519;52.540;13.410;2023-06-10T07:09:21;100638.31;;;18.66;100.00
52625;BME280;38519;52.540;13.410;2023-06-10T07:11:47;100637.47;;;18.67;100.00
52625;BME280;38519;52.540;13.410;2023-06-10T07:14:12;100648.13;;;18.69;100.00
52625;BME280;38519;52.540;13.410;2023-06-10T07:16:37;100642.53;;;18.61;100.00
52625;BME280;38519;52.540;13.410;2023-06-10T07:19:03;100646.19;;;18.65;100.00
52625;BME280;38519;52.540;13.410;2023-06-10T07:21:29;100642.59;;;18.63;100.00
52625;BME280;38519;52.540;13.410;2023-06-10T07:23:55;100646.31;;;18.68;100.00
52625;BME280;38519;52.540;13.410;2023-06-10T07:26:23;100644.84;;;18.76;100.00
52625;BME280;38519;52.540;13.410;2023-06-10T07:28:48;100648.06;;;18.90;100.00
52625;BME280;38519;52.540;13.410;2023-06-10T07:31:13;100656.66;;;19.07;100.00
52625;BME280;38519;52.540;13.410;2023-06-10T07:33:39;100662.09;;;19.11;100.00
52625;BME280;38519;52.540;13.410;2023-06-10T07:36:05;100662.28;;;19.16;100.00
52625;BME280;38519;52.540;13.410;2023-06-10T07:38:30;100657.44;;;19.28;100.00
52625;BME280;38519;52.540;13.410;2023-06-10T07:40:56;100657.66;;;19.35;100.00
52625;BME280;38519;52.540;13.410;2023-06-10T07:43:21;100670.28;;;19.18;100.00
52625;BME280;38519;52.540;13.410;2023-06-10T07:45:47;100666.09;;;19.24;100.00
52625;BME280;38519;52.540;13.410;2023-06-10T07:48:12;100669.50;;;19.20;100.00
52625;BME280;38519;52.540;13.410;2023-06-10T07:50:38;100672.59;;;19.33;100.00
52625;BME280;38519;52.540;13.410;2023-06-10T07:53:03;100667.09;;;19.26;100.00
52625;BME280;38519;52.540;13.410;2023-06-10T07:55:29;100672.03;;;19.17;100.00
52625;BME280;38519;52.540;13.410;2023-06-10T07:57:54;100674.63;;;19.16;100.00
52625;BME280;38519;52.540;13.410;2023-06-10T08:00:20;100669.63;;;19.23;100.00
52625;BME280;38519;52.540;13.410;2023-06-10T08:02:45;100667.09;;;19.26;100.00
52625;BME280;38519;52.540;13.410;2023-06-10T08:05:11;100676.09;;;19.32;100.00
52625;BME280;38519;52.540;13.410;2023-06-10T08:07:36;100672.34;;;19.75;100.00
52625;BME280;38519;52.540;13.410;2023-06-10T08:10:04;100676.56;;;19.94;100.00
52625;BME280;38519;52.540;13.410;2023-06-10T08:12:31;100672.63;;;20.08;100.00
52625;BME280;38519;52.540;13.410;2023-06-10T08:14:56;100675.38;;;20.11;100.00
52625;BME280;38519;52.540;13.410;2023-06-10T08:17:22;100675.88;;;20.27;99.71
52625;BME280;38519;52.540;13.410;2023-06-10T08:19:47;100684.06;;;20.07;99.93
52625;BME280;38519;52.540;13.410;2023-06-10T08:22:13;100684.66;;;19.98;100.00
52625;BME280;38519;52.540;13.410;2023-06-10T08:24:38;100683.53;;;19.92;100.00
52625;BME280;38519;52.540;13.410;2023-06-10T08:27:03;100691.19;;;19.82;100.00
52625;BME280;38519;52.540;13.410;2023-06-10T08:29:29;100688.59;;;20.10;100.00
52625;BME280;38519;52.540;13.410;2023-06-10T08:31:56;100690.28;;;20.35;100.00
52625;BME280;38519;52.540;13.410;2023-06-10T08:34:21;100690.75;;;20.76;98.52
52625;BME280;38519;52.540;13.410;2023-06-10T08:36:47;100695.44;;;21.15;96.00
52625;BME280;38519;52.540;13.410;2023-06-10T08:39:12;100696.59;;;21.54;92.42
52625;BME280;38519;52.540;13.410;2023-06-10T08:41:41;100693.06;;;21.55;93.57
52625;BME280;38519;52.540;13.410;2023-06-10T08:44:16;100701.06;;;21.55;91.01
52625;BME280;38519;52.540;13.410;2023-06-10T08:46:45;100705.66;;;21.30;91.49
52625;BME280;38519;52.540;13.410;2023-06-10T08:49:11;100708.88;;;21.20;91.76
52625;BME280;38519;52.540;13.410;2023-06-10T08:51:40;100710.81;;;21.25;91.41
52625;BME280;38519;52.540;13.410;2023-06-10T08:54:11;100712.53;;;21.25;90.80
52625;BME280;38519;52.540;13.410;2023-06-10T08:56:39;100712.22;;;21.13;91.16
52625;BME280;38519;52.540;13.410;2023-06-10T08:59:05;100714.19;;;21.20;91.93
52625;BME280;38519;52.540;13.410;2023-06-10T09:01:30;100715.44;;;21.33;89.98
52625;BME280;38519;52.540;13.410;2023-06-10T09:03:56;100713.28;;;21.19;91.19
52625;BME280;38519;52.540;13.410;2023-06-10T09:06:22;100712.53;;;20.95;91.95
52625;BME280;38519;52.540;13.410;2023-06-10T09:08:48;100703.38;;;20.85;93.04
52625;BME280;38519;52.540;13.410;2023-06-10T09:11:14;100711.41;;;20.86;95.09
52625;BME280;38519;52.540;13.410;2023-06-10T09:13:40;100715.38;;;20.72;92.41
52625;BME280;38519;52.540;13.410;2023-06-10T09:16:05;100711.97;;;20.49;93.17
52625;BME280;38519;52.540;13.410;2023-06-10T09:18:30;100718.97;;;20.19;94.19
52625;BME280;38519;52.540;13.410;2023-06-10T09:20:56;100719.00;;;19.95;95.78
52625;BME280;38519;52.540;13.410;2023-06-10T09:23:21;100719.41;;;19.82;96.39
52625;BME280;38519;52.540;13.410;2023-06-10T09:25:53;100723.13;;;19.63;97.84
52625;BME280;38519;52.540;13.410;2023-06-10T09:28:20;100721.69;;;19.47;98.55
52625;BME280;38519;52.540;13.410;2023-06-10T09:30:46;100718.16;;;19.48;99.07
52625;BME280;38519;52.540;13.410;2023-06-10T09:33:12;100718.75;;;19.63;98.65
52625;BME280;38519;52.540;13.410;2023-06-10T09:35:44;100716.53;;;19.76;99.30
52625;BME280;38519;52.540;13.410;2023-06-10T09:38:10;100724.50;;;20.01;96.68
52625;BME280;38519;52.540;13.410;2023-06-10T09:40:47;100725.53;;;20.05;96.64
52625;BME280;38519;52.540;13.410;2023-06-10T09:43:13;100728.13;;;20.04;97.26
52625;BME280;38519;52.540;13.410;2023-06-10T09:45:40;100723.22;;;19.90;98.03
52625;BME280;38519;52.540;13.410;2023-06-10T09:48:05;100722.22;;;19.87;97.94
52625;BME280;38519;52.540;13.410;2023-06-10T09:50:33;100727.13;;;19.76;97.62
52625;BME280;38519;52.540;13.410;2023-06-10T09:52:59;100724.72;;;19.82;97.12
52625;BME280;38519;52.540;13.410;2023-06-10T09:55:27;100719.69;;;19.90;96.95
52625;BME280;38519;52.540;13.410;2023-06-10T09:57:53;100717.25;;;19.96;98.00
52625;BME280;38519;52.540;13.410;2023-06-10T10:00:19;100723.66;;;20.02;96.24
52625;BME280;38519;52.540;13.410;2023-06-10T10:02:50;100716.59;;;20.03;95.43
52625;BME280;38519;52.540;13.410;2023-06-10T10:05:18;100723.78;;;20.06;96.16
52625;BME280;38519;52.540;13.410;2023-06-10T10:07:43;100719.25;;;20.03;96.20
52625;BME280;38519;52.540;13.410;2023-06-10T10:10:10;100719.25;;;20.03;98.93
52625;BME280;38519;52.540;13.410;2023-06-10T10:12:38;100716.88;;;20.11;98.82
52625;BME280;38519;52.540;13.410;2023-06-10T10:15:05;100720.13;;;20.28;97.79
52625;BME280;38519;52.540;13.410;2023-06-10T10:17:34;100719.66;;;20.41;95.93
52625;BME280;38519;52.540;13.410;2023-06-10T10:20:03;100713.16;;;20.59;95.25
52625;BME280;38519;52.540;13.410;2023-06-10T10:22:30;100726.09;;;20.75;94.31
52625;BME280;38519;52.540;13.410;2023-06-10T10:24:57;100722.69;;;20.79;93.94
52625;BME280;38519;52.540;13.410;2023-06-10T10:27:28;100726.53;;;20.89;91.97
52625;BME280;38519;52.540;13.410;2023-06-10T10:29:55;100723.09;;;20.91;91.16
52625;BME280;38519;52.540;13.410;2023-06-10T10:32:32;100721.56;;;21.00;85.02
52625;BME280;38519;52.540;13.410;2023-06-10T10:35:03;100724.91;;;20.94;84.04
52625;BME280;38519;52.540;13.410;2023-06-10T10:37:33;100722.09;;;20.89;87.23
52625;BME280;38519;52.540;13.410;2023-06-10T10:39:59;100725.59;;;20.87;84.86
52625;BME280;38519;52.540;13.410;2023-06-10T10:42:25;100722.06;;;20.61;89.00
52625;BME280;38519;52.540;13.410;2023-06-10T10:44:51;100723.88;;;20.62;87.21
52625;BME280;38519;52.540;13.410;2023-06-10T10:47:18;100728.91;;;20.54;88.57
52625;BME280;38519;52.540;13.410;2023-06-10T10:49:46;100702.09;;;20.45;86.14
52625;BME280;38519;52.540;13.410;2023-06-10T10:52:13;100701.19;;;20.44;88.68
52625;BME280;38519;52.540;13.410;2023-06-10T10:54:43;100699.22;;;20.64;85.53
52625;BME280;38519;52.540;13.410;2023-06-10T10:57:15;100693.50;;;20.79;82.45
52625;BME280;38519;52.540;13.410;2023-06-10T10:59:59;100687.00;;;20.98;80.53
52625;BME280;38519;52.540;13.410;2023-06-10T11:02:44;100682.50;;;21.26;80.31
52625;BME280;38519;52.540;13.410;2023-06-10T11:05:10;100684.31;;;21.59;80.23
52625;BME280;38519;52.540;13.410;2023-06-10T11:07:37;100680.44;;;21.79;79.71
52625;BME280;38519;52.540;13.410;2023-06-10T11:10:03;100686.94;;;21.91;79.09
52625;BME280;38519;52.540;13.410;2023-06-10T11:15:18;100679.84;;;21.90;79.35
52625;BME280;38519;52.540;13.410;2023-06-10T11:23:24;100682.97;;;22.43;76.99
52625;BME280;38519;52.540;13.410;2023-06-10T11:25:49;100689.41;;;22.53;77.85
52625;BME280;38519;52.540;13.410;2023-06-10T11:28:18;100687.88;;;22.63;76.15
52625;BME280;38519;52.540;13.410;2023-06-10T11:30:44;100689.69;;;23.03;75.94
52625;BME280;38519;52.540;13.410;2023-06-10T11:33:19;100698.91;;;23.63;68.05
52625;BME280;38519;52.540;13.410;2023-06-10T11:35:45;100692.50;;;23.54;71.23
52625;BME280;38519;52.540;13.410;2023-06-10T11:38:10;100693.81;;;23.74;73.10
52625;BME280;38519;52.540;13.410;2023-06-10T11:40:36;100688.81;;;23.93;74.77
52625;BME280;38519;52.540;13.410;2023-06-10T11:43:03;100694.97;;;23.87;74.21
52625;BME280;38519;52.540;13.410;2023-06-10T11:45:29;100694.31;;;23.55;76.96
52625;BME280;38519;52.540;13.410;2023-06-10T11:47:57;100700.63;;;23.60;77.93
52625;BME280;38519;52.540;13.410;2023-06-10T11:50:33;100695.13;;;23.08;81.10
52625;BME280;38519;52.540;13.410;2023-06-10T11:52:59;100702.69;;;23.31;81.78
52625;BME280;38519;52.540;13.410;2023-06-10T11:55:44;100700.84;;;23.72;81.02
52625;BME280;38519;52.540;13.410;2023-06-10T11:58:13;100699.94;;;24.17;78.39
52625;BME280;38519;52.540;13.410;2023-06-10T12:03:11;100702.31;;;24.02;77.33
52625;BME280;38519;52.540;13.410;2023-06-10T12:05:36;100702.28;;;24.00;77.29
52625;BME280;38519;52.540;13.410;2023-06-10T12:08:08;100701.53;;;24.09;77.74
52625;BME280;38519;52.540;13.410;2023-06-10T12:10:38;100688.41;;;24.20;75.22
52625;BME280;38519;52.540;13.410;2023-06-10T12:13:03;100701.13;;;24.38;75.20
52625;BME280;38519;52.540;13.410;2023-06-10T12:15:29;100698.72;;;24.53;72.13
52625;BME280;38519;52.540;13.410;2023-06-10T12:17:54;100701.31;;;24.49;71.54
52625;BME280;38519;52.540;13.410;2023-06-10T12:20:30;100688.06;;;24.55;71.43
52625;BME280;38519;52.540;13.410;2023-06-10T12:22:56;100702.09;;;24.98;68.54
52625;BME280;38519;52.540;13.410;2023-06-10T12:25:27;100694.97;;;25.00;65.96
52625;BME280;38519;52.540;13.410;2023-06-10T12:27:53;100695.84;;;25.67;63.95
52625;BME280;38519;52.540;13.410;2023-06-10T12:30:20;100699.63;;;25.92;63.18
52625;BME280;38519;52.540;13.410;2023-06-10T12:32:46;100703.75;;;26.51;62.68
52625;BME280;38519;52.540;13.410;2023-06-10T12:35:33;100695.97;;;26.85;60.43
52625;BME280;38519;52.540;13.410;2023-06-10T12:38:01;100701.41;;;27.02;62.32
52625;BME280;38519;52.540;13.410;2023-06-10T12:40:29;100701.69;;;27.68;61.00
52625;BME280;38519;52.540;13.410;2023-06-10T12:42:56;100697.31;;;28.60;58.64
52625;BME280;38519;52.540;13.410;2023-06-10T12:48:43;100692.78;;;27.92;63.29
52625;BME280;38519;52.540;13.410;2023-06-10T12:50:41;100684.78;;;28.32;63.08